Time;durP1;ratioP1;P1;durP2;ratioP2;P2;SDS_P1;SDS_P2;PMS_P1;PMS_P2;Temp;Humidity;BMP_temperature;BMP_pressure;BME280_temperature;BME280_humidity;BME280_pressure;Samples;Min_cycle;Max_cycle;Signal;HPM_P1;HPM_P2
2023/06/08 00:02:23;;;;;;;18.50;10.10;;;11.50;99.90;;;;;;5033935;28;20466;-29
2023/06/08 00:04:50;;;;;;;18.52;10.40;;;11.50;99.90;;;;;;5033164;28;20052;-29
2023/06/08 00:07:17;;;;;;;20.00;11.05;;;11.50;99.90;;;;;;5032629;28;20184;-30
2023/06/08 00:09:44;;;;;;;24.58;12.57;;;11.50;99.90;;;;;;5032634;28;20068;-29
2023/06/08 00:12:11;;;;;;;22.88;12.35;;;11.50;99.90;;;;;;5033724;28;20089;-29
2023/06/08 00:14:37;;;;;;;21.88;11.05;;;11.50;99.90;;;;;;5032626;28;20111;-29
2023/06/08 00:17:04;;;;;;;27.52;13.35;;;11.50;99.90;;;;;;5033718;28;20060;-29
2023/06/08 00:19:36;;;;;;;27.92;11.82;;;11.50;99.90;;;;;;5033909;28;20444;-29
2023/06/08 00:22:07;;;;;;;24.40;12.52;;;11.50;99.90;;;;;;5033909;28;20511;-29
2023/06/08 00:24:33;;;;;;;23.65;11.20;;;11.50;99.90;;;;;;5033709;28;20555;-29
2023/06/08 00:26:59;;;;;;;23.35;11.93;;;11.50;99.90;;;;;;5033555;28;20076;-29
2023/06/08 00:29:25;;;;;;;27.42;11.93;;;11.50;99.90;;;;;;5033556;28;20530;-30
2023/06/08 00:31:52;;;;;;;23.70;12.65;;;11.50;99.90;;;;;;5033508;28;20102;-29
2023/06/08 00:34:18;;;;;;;22.80;11.90;;;11.50;99.90;;;;;;5032536;28;20049;-29
2023/06/08 00:36:44;;;;;;;21.90;12.43;;;11.50;99.90;;;;;;5033448;28;20104;-30
2023/06/08 00:39:09;;;;;;;25.92;12.45;;;11.50;99.90;;;;;;5033469;28;20089;-29
2023/06/08 00:41:35;;;;;;;27.25;11.70;;;11.50;99.90;;;;;;5033438;28;20117;-31
2023/06/08 00:44:08;;;;;;;19.88;11.63;;;11.40;99.90;;;;;;5033117;28;20052;-30
2023/06/08 00:46:35;;;;;;;21.13;11.40;;;11.40;99.90;;;;;;5033392;28;20374;-29
2023/06/08 00:49:01;;;;;;;25.38;12.25;;;11.30;99.90;;;;;;5032187;28;20056;-29
2023/06/08 00:51:31;;;;;;;26.20;11.43;;;11.30;99.90;;;;;;5032420;28;20049;-29
2023/06/08 00:53:57;;;;;;;19.90;9.50;;;11.30;99.90;;;;;;5033385;28;20136;-29
2023/06/08 00:56:26;;;;;;;18.15;9.35;;;11.30;99.90;;;;;;5032375;28;20053;-29
2023/06/08 00:58:56;;;;;;;18.73;8.60;;;11.30;99.90;;;;;;5032315;28;20049;-30
2023/06/08 01:01:24;;;;;;;23.02;9.07;;;11.30;99.90;;;;;;5033271;28;20045;-29
2023/06/08 01:03:51;;;;;;;15.85;7.95;;;11.30;99.90;;;;;;5033527;28;20104;-29
2023/06/08 01:06:20;;;;;;;16.48;8.80;;;11.20;99.90;;;;;;5033685;28;20050;-30
2023/06/08 01:09:21;;;;;;;20.23;8.75;;;11.30;99.90;;;;;;5033227;28;20050;-30
2023/06/08 01:12:15;;;;;;;22.17;7.57;;;11.30;99.90;;;;;;5025851;28;20057;-29
2023/06/08 01:14:59;;;;;;;;;;;11.30;99.90;;;;;;5033554;28;20559;-29
2023/06/08 01:17:32;;;;;;;19.10;7.85;;;11.40;99.90;;;;;;5033658;28;19999;-29
2023/06/08 01:20:12;;;;;;;18.00;8.85;;;11.40;99.90;;;;;;5033226;28;20052;-28
2023/06/08 01:23:00;;;;;;;20.00;7.88;;;11.40;99.90;;;;;;5033934;28;20413;-29
2023/06/08 01:25:28;;;;;;;17.83;6.93;;;11.40;99.90;;;;;;5033366;28;20045;-29
2023/06/08 01:28:13;;;;;;;19.33;7.78;;;11.40;99.90;;;;;;5032957;28;20048;-29
2023/06/08 01:30:40;;;;;;;16.35;6.60;;;11.40;99.90;;;;;;5033902;28;20060;-29
2023/06/08 01:33:08;;;;;;;15.27;6.70;;;11.40;99.90;;;;;;5032984;28;20049;-30
2023/06/08 01:35:34;;;;;;;18.70;6.72;;;11.40;99.90;;;;;;5032609;28;20049;-29
2023/06/08 01:38:11;;;;;;;14.25;6.95;;;11.40;99.90;;;;;;5032909;28;20451;-29
2023/06/08 01:40:42;;;;;;;19.17;7.53;;;11.40;99.90;;;;;;5037273;28;20124;-29
2023/06/08 01:43:11;;;;;;;19.20;7.70;;;11.40;99.90;;;;;;5037327;28;20056;-29
2023/06/08 01:45:45;;;;;;;21.20;9.35;;;11.40;99.90;;;;;;5037244;28;20432;-29
2023/06/08 01:48:12;;;;;;;12.98;6.68;;;11.40;99.90;;;;;;5036068;28;20481;-29
2023/06/08 01:50:39;;;;;;;16.50;7.63;;;11.40;99.90;;;;;;5036275;28;20489;-29
2023/06/08 01:53:05;;;;;;;16.58;7.78;;;11.40;99.90;;;;;;5018991;28;20045;-29
2023/06/08 01:55:31;;;;;;;17.33;10.05;;;11.40;99.90;;;;;;5036231;28;20125;-29
2023/06/08 01:57:57;;;;;;;21.38;10.85;;;11.40;99.90;;;;;;5036158;28;20073;-29
2023/06/08 02:00:23;;;;;;;14.02;10.40;;;11.40;99.90;;;;;;5036465;28;20136;-30
2023/06/08 02:02:48;;;;;;;21.67;10.90;;;11.40;99.90;;;;;;5036084;28;20101;-29
2023/06/08 02:05:15;;;;;;;23.52;11.43;;;11.40;99.90;;;;;;5037125;28;20042;-29
2023/06/08 02:07:42;;;;;;;21.15;9.98;;;11.40;99.90;;;;;;5036171;28;20037;-29
2023/06/08 02:10:10;;;;;;;15.23;8.50;;;11.40;99.90;;;;;;5035974;28;20088;-30
2023/06/08 02:12:35;;;;;;;19.08;8.23;;;11.40;99.90;;;;;;5036440;28;20457;-30
2023/06/08 02:15:01;;;;;;;18.70;8.40;;;11.40;99.90;;;;;;5035874;28;20081;-30
2023/06/08 02:17:33;;;;;;;18.52;8.57;;;11.40;99.90;;;;;;5018649;28;20480;-29
2023/06/08 02:20:06;;;;;;;20.77;8.18;;;11.40;99.90;;;;;;5035873;28;20057;-30
2023/06/08 02:22:32;;;;;;;20.92;8.23;;;11.40;99.90;;;;;;5036317;28;20050;-29
2023/06/08 02:24:58;;;;;;;16.95;7.03;;;11.40;99.90;;;;;;5035699;28;20084;-29
2023/06/08 02:27:24;;;;;;;14.98;7.03;;;11.50;99.90;;;;;;5035601;28;20085;-30
2023/06/08 02:29:50;;;;;;;18.60;7.80;;;11.50;99.90;;;;;;5034292;28;20049;-29
2023/06/08 02:32:16;;;;;;;15.07;7.50;;;11.50;99.90;;;;;;5034551;28;20054;-29
2023/06/08 02:34:53;;;;;;;14.88;7.45;;;11.50;99.90;;;;;;5035505;28;20041;-29
2023/06/08 02:37:19;;;;;;;17.08;7.68;;;11.50;99.90;;;;;;5034889;28;20044;-30
2023/06/08 02:39:45;;;;;;;17.70;8.20;;;11.40;99.90;;;;;;5035076;28;20064;-29
2023/06/08 02:42:11;;;;;;;20.38;8.75;;;11.50;99.90;;;;;;5035433;28;20476;-29
2023/06/08 02:44:37;;;;;;;19.27;8.45;;;11.50;99.90;;;;;;5034164;28;20108;-29
2023/06/08 02:47:03;;;;;;;23.92;9.25;;;11.50;99.90;;;;;;5017620;28;20049;-29
2023/06/08 02:49:29;;;;;;;16.83;6.65;;;11.50;99.90;;;;;;5034473;28;20057;-29
2023/06/08 02:51:55;;;;;;;15.70;6.72;;;11.50;99.90;;;;;;5033945;28;20065;-29
2023/06/08 02:54:20;;;;;;;20.00;7.28;;;11.50;99.90;;;;;;5035135;28;20048;-29
2023/06/08 02:56:46;;;;;;;16.88;7.03;;;11.50;99.90;;;;;;5035096;28;20489;-29
2023/06/08 02:59:12;;;;;;;21.42;5.90;;;11.50;99.90;;;;;;5033639;28;20505;-31
2023/06/08 03:01:53;;;;;;;13.30;5.80;;;11.50;99.90;;;;;;5034033;28;20049;-29
2023/06/08 03:04:27;;;;;;;12.73;5.75;;;11.50;99.90;;;;;;5034997;28;20114;-29
2023/06/08 03:06:53;;;;;;;16.30;5.80;;;11.50;99.90;;;;;;5034908;28;20045;-30
2023/06/08 03:09:24;;;;;;;17.75;5.63;;;11.50;99.90;;;;;;5034873;28;20045;-29
2023/06/08 03:11:51;;;;;;;11.82;5.43;;;11.50;99.90;;;;;;5034825;28;20061;-29
2023/06/08 03:14:18;;;;;;;15.68;4.78;;;11.50;99.90;;;;;;5035003;28;20088;-29
2023/06/08 03:16:47;;;;;;;17.27;6.53;;;11.50;99.90;;;;;;5034744;28;20058;-31
2023/06/08 03:19:14;;;;;;;11.80;5.32;;;11.50;99.90;;;;;;5034331;28;20434;-29
2023/06/08 03:21:41;;;;;;;14.25;5.18;;;11.50;99.90;;;;;;5034363;28;20041;-29
2023/06/08 03:24:11;;;;;;;17.17;5.43;;;11.50;99.90;;;;;;5034548;28;20056;-29
2023/06/08 03:26:38;;;;;;;16.65;5.15;;;11.50;99.90;;;;;;5034147;28;20076;-29
2023/06/08 03:29:03;;;;;;;11.55;4.45;;;11.50;99.90;;;;;;5034276;28;20476;-29
2023/06/08 03:31:29;;;;;;;14.13;5.53;;;11.60;99.90;;;;;;5034424;28;20095;-29
2023/06/08 03:33:56;;;;;;;16.55;4.78;;;11.60;99.90;;;;;;5034258;28;20048;-30
2023/06/08 03:36:28;;;;;;;14.25;4.50;;;11.60;99.90;;;;;;5016986;28;20050;-30
2023/06/08 03:38:54;;;;;;;16.50;5.10;;;11.60;99.90;;;;;;5034129;28;20096;-29
2023/06/08 03:41:19;;;;;;;18.20;5.05;;;11.60;99.90;;;;;;5034191;28;20085;-29
2023/06/08 03:43:45;;;;;;;12.68;5.28;;;11.60;99.90;;;;;;5033807;28;20081;-29
2023/06/08 03:46:11;;;;;;;14.85;4.78;;;11.70;99.90;;;;;;5034022;28;20513;-30
2023/06/08 03:48:36;;;;;;;11.75;5.00;;;11.70;99.90;;;;;;5034109;28;20049;-29
2023/06/08 03:51:02;;;;;;;15.73;4.68;;;11.70;99.90;;;;;;5034078;28;20133;-29
2023/06/08 03:53:28;;;;;;;14.95;5.28;;;11.70;99.90;;;;;;5033955;28;20115;-29
2023/06/08 03:55:54;;;;;;;25.52;6.25;;;11.70;99.90;;;;;;5034243;28;20085;-29
2023/06/08 03:58:21;;;;;;;17.92;5.50;;;11.80;99.90;;;;;;5033962;28;20485;-29
2023/06/08 04:00:49;;;;;;;15.95;5.45;;;11.80;99.90;;;;;;5032691;28;20056;-29
2023/06/08 04:03:14;;;;;;;14.93;4.90;;;11.80;99.90;;;;;;5032316;28;20141;-29
2023/06/08 04:05:41;;;;;;;17.88;5.13;;;11.90;99.90;;;;;;5032847;28;20085;-30
2023/06/08 04:08:07;;;;;;;20.70;7.13;;;11.90;99.90;;;;;;5032506;28;20049;-30
2023/06/08 04:10:33;;;;;;;14.60;4.90;;;11.90;99.90;;;;;;5033937;28;20041;-31
2023/06/08 04:12:58;;;;;;;11.77;4.90;;;11.90;99.90;;;;;;5033744;28;20107;-30
2023/06/08 04:15:25;;;;;;;25.70;7.97;;;11.90;99.90;;;;;;5032447;28;20045;-30
2023/06/08 04:17:51;;;;;;;13.30;4.97;;;11.90;99.90;;;;;;5034249;28;20041;-31
2023/06/08 04:20:17;;;;;;;12.13;4.82;;;11.90;99.90;;;;;;5033525;28;20045;-29
2023/06/08 04:22:43;;;;;;;16.92;5.47;;;12.00;99.90;;;;;;5033597;28;20107;-29
2023/06/08 04:25:09;;;;;;;16.88;6.15;;;12.00;99.90;;;;;;5034365;28;20053;-29
2023/06/08 04:27:35;;;;;;;17.75;6.43;;;12.00;99.90;;;;;;5032305;28;20048;-29
2023/06/08 04:30:02;;;;;;;15.68;6.05;;;12.00;99.90;;;;;;5032135;28;20058;-29
2023/06/08 04:32:28;;;;;;;14.75;5.82;;;12.10;99.90;;;;;;5033461;28;20107;-29
2023/06/08 04:34:53;;;;;;;13.30;5.97;;;12.10;99.90;;;;;;5033507;28;20046;-30
2023/06/08 04:37:19;;;;;;;13.88;6.80;;;12.10;99.90;;;;;;5032467;28;20476;-30
2023/06/08 04:39:48;;;;;;;13.95;4.57;;;12.20;99.90;;;;;;5032487;28;20099;-29
2023/06/08 04:42:17;;;;;;;15.55;5.43;;;12.20;99.90;;;;;;5033680;28;20072;-29
2023/06/08 04:44:43;;;;;;;14.68;5.63;;;12.20;99.90;;;;;;5033978;28;20050;-29
2023/06/08 04:47:09;;;;;;;15.05;5.78;;;12.20;99.90;;;;;;5033291;28;20091;-30
2023/06/08 04:49:34;;;;;;;21.50;5.90;;;12.30;99.90;;;;;;5032319;28;20042;-29
2023/06/08 04:52:00;;;;;;;14.40;6.03;;;12.30;99.90;;;;;;5033355;28;20128;-29
2023/06/08 04:54:30;;;;;;;17.70;6.65;;;12.40;99.90;;;;;;5033322;28;20081;-29
2023/06/08 04:56:58;;;;;;;15.70;5.95;;;12.40;99.90;;;;;;5032922;28;20374;-29
2023/06/08 04:59:27;;;;;;;17.67;6.45;;;12.50;99.90;;;;;;5033830;28;20053;-29
2023/06/08 05:01:54;;;;;;;20.83;6.65;;;12.60;99.90;;;;;;5033232;28;20053;-29
2023/06/08 05:04:20;;;;;;;15.35;6.10;;;12.60;99.90;;;;;;5032782;28;20408;-29
2023/06/08 05:06:47;;;;;;;22.13;5.80;;;12.60;99.90;;;;;;5033095;28;20037;-30
2023/06/08 05:09:12;;;;;;;16.63;6.32;;;12.60;99.90;;;;;;5033122;28;20046;-29
2023/06/08 05:11:39;;;;;;;16.63;5.45;;;12.60;99.90;;;;;;5033404;28;20052;-29
2023/06/08 05:14:05;;;;;;;12.20;4.18;;;12.60;99.90;;;;;;5034376;28;20042;-29
2023/06/08 05:16:31;;;;;;;18.20;6.22;;;12.60;99.90;;;;;;5036874;28;20038;-30
2023/06/08 05:18:57;;;;;;;16.35;4.90;;;12.70;99.90;;;;;;5035949;28;20053;-29
2023/06/08 05:21:22;;;;;;;13.18;5.10;;;12.70;99.90;;;;;;5035777;28;20041;-29
2023/06/08 05:23:48;;;;;;;16.15;5.15;;;12.80;99.90;;;;;;5036782;28;20533;-29
2023/06/08 05:26:14;;;;;;;13.05;5.18;;;12.80;99.90;;;;;;5035713;28;20068;-30
2023/06/08 05:28:39;;;;;;;13.70;4.68;;;12.80;94.60;;;;;;5036447;28;20054;-30
2023/06/08 05:31:05;;;;;;;16.20;5.57;;;12.90;96.50;;;;;;5037534;28;20048;-30
2023/06/08 05:33:31;;;;;;;20.40;6.35;;;12.90;91.50;;;;;;5035403;28;20124;-29
2023/06/08 05:35:57;;;;;;;11.65;5.03;;;13.00;86.00;;;;;;5036567;28;20049;-29
2023/06/08 05:38:23;;;;;;;17.15;5.05;;;13.10;44.20;;;;;;5035242;28;20052;-30
2023/06/08 05:40:48;;;;;;;14.57;5.13;;;13.10;45.40;;;;;;5036438;28;20049;-30
2023/06/08 05:43:14;;;;;;;18.77;5.55;;;13.30;51.50;;;;;;5036419;28;20042;-29
2023/06/08 05:45:40;;;;;;;11.05;4.82;;;13.30;14.70;;;;;;5036438;28;20584;-29
2023/06/08 05:48:07;;;;;;;15.52;6.30;;;13.40;1.00;;;;;;5036251;28;20049;-30
2023/06/08 05:50:33;;;;;;;15.10;4.50;;;13.40;1.00;;;;;;5019157;28;20079;-29
2023/06/08 05:52:59;;;;;;;9.73;4.28;;;13.50;1.00;;;;;;5035964;28;20050;-29
2023/06/08 05:55:25;;;;;;;12.85;4.93;;;13.60;1.00;;;;;;5036132;28;20053;-30
2023/06/08 05:57:51;;;;;;;13.88;5.25;;;13.70;1.00;;;;;;5036627;28;20413;-29
2023/06/08 06:00:17;;;;;;;14.10;5.53;;;13.70;1.00;;;;;;5036118;28;20480;-30
2023/06/08 06:02:43;;;;;;;12.77;4.25;;;13.70;1.00;;;;;;5034947;28;20073;-29
2023/06/08 06:05:09;;;;;;;14.80;3.90;;;13.90;1.00;;;;;;5034672;28;20489;-30
2023/06/08 06:07:36;;;;;;;20.92;5.35;;;14.00;1.00;;;;;;5036464;28;20132;-30
2023/06/08 06:10:06;;;;;;;12.90;4.28;;;14.00;1.00;;;;;;5035476;28;20049;-29
2023/06/08 06:12:31;;;;;;;13.93;4.82;;;14.10;99.90;;;;;;5036403;28;20046;-29
2023/06/08 06:14:57;;;;;;;12.15;4.43;;;14.20;99.90;;;;;;5035745;28;20508;-30
2023/06/08 06:17:23;;;;;;;20.40;5.85;;;14.40;99.90;;;;;;5035863;28;20045;-30
2023/06/08 06:19:49;;;;;;;13.93;4.20;;;14.90;99.90;;;;;;5036283;28;20049;-29
2023/06/08 06:22:16;;;;;;;13.30;4.30;;;15.40;99.90;;;;;;5035626;28;20050;-31
2023/06/08 06:24:42;;;;;;;11.57;4.15;;;15.50;38.00;;;;;;5034076;28;20099;-30
2023/06/08 06:27:07;;;;;;;15.25;4.10;;;15.70;8.80;;;;;;5036039;28;20049;-30
2023/06/08 06:29:33;;;;;;;10.80;3.95;;;15.80;1.00;;;;;;5034457;28;20120;-29
2023/06/08 06:32:00;;;;;;;13.05;4.00;;;15.50;1.00;;;;;;5034362;28;20060;-29
2023/06/08 06:34:25;;;;;;;12.05;3.95;;;15.20;1.00;;;;;;5035359;28;20384;-29
2023/06/08 06:36:51;;;;;;;12.82;3.78;;;15.20;1.00;;;;;;5035471;28;20037;-29
2023/06/08 06:39:18;;;;;;;14.38;3.90;;;15.50;1.00;;;;;;5035349;28;20051;-29
2023/06/08 06:41:44;;;;;;;12.13;4.60;;;15.60;1.00;;;;;;5035871;28;20397;-30
2023/06/08 06:44:09;;;;;;;13.23;4.15;;;15.80;1.00;;;;;;5035819;28;20045;-30
2023/06/08 06:46:35;;;;;;;16.55;4.45;;;16.20;99.90;;;;;;5034773;28;20100;-29
2023/06/08 06:49:01;;;;;;;11.35;4.80;;;17.00;99.90;;;;;;5035206;28;20053;-29
2023/06/08 06:51:27;;;;;;;15.82;5.22;;;16.70;1.00;;;;;;5035124;28;20477;-29
2023/06/08 06:53:52;;;;;;;12.48;4.68;;;16.20;1.00;;;;;;5034788;28;20560;-30
2023/06/08 06:56:18;;;;;;;19.85;5.53;;;16.40;24.40;;;;;;5035538;28;20099;-29
2023/06/08 06:58:44;;;;;;;13.32;4.13;;;16.40;1.00;;;;;;5035012;28;20519;-30
2023/06/08 07:01:15;;;;;;;13.68;4.30;;;16.80;1.00;;;;;;5034974;28;20473;-29
2023/06/08 07:03:43;;;;;;;17.55;4.95;;;17.80;99.90;;;;;;5034821;28;20049;-28
2023/06/08 07:06:10;;;;;;;15.45;4.50;;;18.70;99.90;;;;;;5034791;28;20045;-30
2023/06/08 07:08:36;;;;;;;10.35;4.40;;;19.00;99.90;;;;;;5034387;28;20405;-29
2023/06/08 07:11:02;;;;;;;12.02;4.07;;;19.00;1.00;;;;;;5034443;28;20041;-30
2023/06/08 07:13:28;;;;;;;14.48;4.05;;;19.10;99.90;;;;;;5035242;28;20491;-29
2023/06/08 07:15:54;;;;;;;10.02;4.03;;;19.00;99.90;;;;;;5034691;28;20064;-30
2023/06/08 07:18:20;;;;;;;8.05;3.65;;;19.40;99.90;;;;;;5035236;28;20051;-31
2023/06/08 07:20:46;;;;;;;12.82;3.63;;;19.80;1.00;;;;;;5034845;28;20392;-29
2023/06/08 07:23:12;;;;;;;12.40;4.07;;;19.90;1.00;;;;;;5035565;28;20053;-29
2023/06/08 07:25:37;;;;;;;12.27;3.42;;;20.20;99.90;;;;;;5035321;28;20389;-30
2023/06/08 07:28:04;;;;;;;16.50;3.97;;;20.10;99.90;;;;;;5034369;28;20397;-30
2023/06/08 07:30:31;;;;;;;10.98;3.75;;;19.70;99.90;;;;;;5032773;28;20523;-29
2023/06/08 07:33:01;;;;;;;10.27;3.65;;;19.90;99.90;;;;;;5034108;28;20515;-29
2023/06/08 07:35:27;;;;;;;13.93;3.80;;;20.30;99.90;;;;;;5016788;28;20062;-29
2023/06/08 07:37:53;;;;;;;10.90;3.22;;;20.20;1.00;;;;;;5033904;28;20038;-29
2023/06/08 07:40:19;;;;;;;13.70;3.60;;;20.10;1.00;;;;;;5034259;28;20053;-30
2023/06/08 07:42:46;;;;;;;12.38;3.97;;;20.00;1.00;;;;;;5034478;28;20233;-29
2023/06/08 07:45:13;;;;;;;15.50;4.43;;;20.40;1.00;;;;;;5034104;28;20052;-29
2023/06/08 07:47:41;;;;;;;12.90;4.40;;;20.50;1.00;;;;;;5034640;28;20046;-29
2023/06/08 07:50:08;;;;;;;12.95;4.63;;;20.40;99.90;;;;;;5034098;28;20561;-29
2023/06/08 07:52:34;;;;;;;20.90;4.35;;;20.20;1.00;;;;;;5033998;28;20132;-30
2023/06/08 07:55:00;;;;;;;12.35;4.80;;;20.60;1.00;;;;;;5033975;28;20041;-29
2023/06/08 07:57:26;;;;;;;10.38;3.72;;;21.20;1.00;;;;;;5034515;28;20056;-30
2023/06/08 07:59:52;;;;;;;10.30;3.95;;;21.20;99.90;;;;;;5034182;28;20037;-30
2023/06/08 08:02:19;;;;;;;8.45;3.30;;;21.40;99.90;;;;;;5033899;28;20481;-29
2023/06/08 08:04:45;;;;;;;13.45;4.22;;;21.30;94.20;;;;;;5033855;28;20053;-29
2023/06/08 08:07:11;;;;;;;13.15;3.72;;;21.10;14.50;;;;;;5034021;28;20041;-31
2023/06/08 08:09:37;;;;;;;13.02;3.83;;;20.90;21.50;;;;;;5033731;28;20075;-30
2023/06/08 08:12:03;;;;;;;14.85;4.20;;;20.90;43.70;;;;;;5033775;28;20056;-30
2023/06/08 08:14:28;;;;;;;12.65;4.45;;;20.90;77.20;;;;;;5032460;28;20049;-29
2023/06/08 08:16:54;;;;;;;8.23;3.28;;;20.90;99.90;;;;;;5033707;28;20060;-30
2023/06/08 08:19:20;;;;;;;11.45;4.25;;;21.00;1.00;;;;;;5033696;28;20123;-29
2023/06/08 08:21:46;;;;;;;14.07;4.20;;;20.80;1.00;;;;;;5033773;28;20041;-30
2023/06/08 08:24:11;;;;;;;9.25;3.22;;;20.90;1.00;;;;;;5033683;28;20061;-30
2023/06/08 08:26:43;;;;;;;11.98;3.50;;;21.20;86.20;;;;;;5032819;28;20061;-30
2023/06/08 08:29:09;;;;;;;11.65;3.45;;;21.40;1.00;;;;;;5033081;28;20045;-30
2023/06/08 08:31:34;;;;;;;14.43;3.78;;;21.90;1.00;;;;;;5033527;28;20041;-30
2023/06/08 08:34:00;;;;;;;17.25;4.05;;;22.00;1.00;;;;;;5033474;28;20432;-29
2023/06/08 08:36:27;;;;;;;8.48;3.47;;;21.70;99.90;;;;;;5033392;28;20155;-31
2023/06/08 08:38:53;;;;;;;7.40;3.47;;;21.80;1.00;;;;;;5033464;28;20456;-29
2023/06/08 08:41:28;;;;;;;15.48;4.57;;;21.50;99.90;;;;;;5032735;28;20128;-29
2023/06/08 08:44:00;;;;;;;8.07;3.17;;;21.60;99.90;;;;;;5032568;28;20053;-30
2023/06/08 08:46:28;;;;;;;12.13;4.03;;;21.70;99.90;;;;;;5033498;28;20053;-30
2023/06/08 08:48:58;;;;;;;13.52;4.03;;;21.50;99.90;;;;;;5035152;28;20067;-29
2023/06/08 08:51:25;;;;;;;14.15;3.92;;;21.90;1.00;;;;;;5037449;28;20046;-30
2023/06/08 08:53:51;;;;;;;12.75;3.45;;;21.80;99.90;;;;;;5037403;28;20052;-29
2023/06/08 08:56:20;;;;;;;8.93;3.28;;;22.20;99.90;;;;;;5019977;28;20042;-30
2023/06/08 08:58:47;;;;;;;9.88;3.67;;;22.20;99.90;;;;;;5037239;28;20048;-30
2023/06/08 09:01:13;;;;;;;11.80;3.50;;;22.10;99.90;;;;;;5037395;28;20076;-29
2023/06/08 09:03:39;;;;;;;12.02;3.80;;;22.30;99.90;;;;;;5035667;28;20570;-30
2023/06/08 09:06:06;;;;;;;8.65;2.97;;;22.30;99.90;;;;;;5036174;28;20128;-30
2023/06/08 09:08:32;;;;;;;12.25;3.85;;;22.20;99.90;;;;;;5037011;28;20393;-30
2023/06/08 09:11:06;;;;;;;9.52;3.28;;;22.50;99.90;;;;;;5037086;28;20047;-30
2023/06/08 09:13:33;;;;;;;10.23;3.67;;;22.60;99.90;;;;;;5036311;28;20057;-30
2023/06/08 09:16:17;;;;;;;9.57;3.53;;;22.80;99.90;;;;;;5035925;28;20481;-30
2023/06/08 09:18:44;;;;;;;12.75;3.58;;;22.90;99.90;;;;;;5036838;28;20507;-30
2023/06/08 09:21:23;;;;;;;13.18;3.70;;;22.90;99.90;;;;;;5037296;28;20048;-30
2023/06/08 09:24:04;;;;;;;8.07;2.45;;;22.80;99.90;;;;;;5036827;28;20081;-30
2023/06/08 09:26:33;;;;;;;10.32;3.10;;;22.90;90.20;;;;;;5036766;28;20046;-30
2023/06/08 09:29:01;;;;;;;8.60;2.83;;;22.70;99.90;;;;;;5036454;28;20045;-30
2023/06/08 09:31:29;;;;;;;8.98;2.97;;;22.60;99.90;;;;;;5036967;28;20156;-31
2023/06/08 09:34:05;;;;;;;10.35;3.10;;;22.50;87.50;;;;;;5036139;28;20481;-29
2023/06/08 09:36:35;;;;;;;8.73;2.90;;;22.50;1.00;;;;;;5036605;28;20057;-30
2023/06/08 09:39:03;;;;;;;10.45;3.03;;;22.20;50.00;;;;;;5035581;28;20505;-30
2023/06/08 09:41:29;;;;;;;8.32;3.13;;;22.20;90.00;;;;;;5035453;28;20053;-30
2023/06/08 09:43:55;;;;;;;12.25;3.15;;;22.60;73.60;;;;;;5035451;28;20087;-30
2023/06/08 09:46:45;;;;;;;6.80;2.83;;;22.30;24.70;;;;;;5019525;28;20184;-30
2023/06/08 09:49:15;;;;;;;7.88;2.92;;;22.60;11.50;;;;;;5036266;28;20049;-30
2023/06/08 09:51:47;;;;;;;7.53;2.67;;;22.40;78.90;;;;;;5035947;28;20053;-30
2023/06/08 09:54:15;;;;;;;11.23;3.43;;;22.50;99.90;;;;;;5037084;28;20052;-30
2023/06/08 09:56:52;;;;;;;10.13;3.42;;;22.60;99.90;;;;;;5036430;28;20203;-29
2023/06/08 09:59:22;;;;;;;9.45;2.92;;;22.70;82.70;;;;;;5035357;28;20053;-30
2023/06/08 10:01:56;;;;;;;9.20;2.45;;;22.60;57.80;;;;;;5036010;28;20049;-31
2023/06/08 10:04:35;;;;;;;6.28;2.60;;;22.90;88.90;;;;;;5036416;28;20049;-30
2023/06/08 10:07:12;;;;;;;8.82;2.78;;;23.20;40.90;;;;;;5036125;28;20041;-30
2023/06/08 10:09:45;;;;;;;10.73;3.22;;;23.10;1.00;;;;;;5035964;28;20049;-29
2023/06/08 10:12:12;;;;;;;10.60;3.30;;;22.80;1.00;;;;;;5036017;28;20057;-30
2023/06/08 10:14:39;;;;;;;7.15;2.45;;;22.70;14.00;;;;;;5035831;28;20131;-30
2023/06/08 10:17:05;;;;;;;8.82;3.25;;;22.90;46.30;;;;;;5035853;28;20049;-31
2023/06/08 10:19:32;;;;;;;8.38;3.15;;;22.90;5.10;;;;;;5036237;28;20072;-29
2023/06/08 10:22:00;;;;;;;8.52;3.35;;;23.10;1.00;;;;;;5034638;28;20493;-31
2023/06/08 10:24:30;;;;;;;11.73;4.03;;;23.10;10.70;;;;;;5035711;28;20049;-30
2023/06/08 10:27:10;;;;;;;8.68;3.63;;;23.30;1.00;;;;;;5036376;28;20072;-30
2023/06/08 10:29:36;;;;;;;7.50;3.53;;;23.30;1.00;;;;;;5034056;28;20057;-30
2023/06/08 10:32:09;;;;;;;8.90;3.55;;;23.20;1.00;;;;;;5034377;28;20456;-30
2023/06/08 10:34:39;;;;;;;;;;;23.70;5.20;;;;;;5035892;28;20107;-29
2023/06/08 10:37:04;;;;;;;11.25;4.45;;;23.80;1.00;;;;;;5034219;28;19928;-30
2023/06/08 10:39:46;;;;;;;10.40;3.35;;;24.10;1.00;;;;;;5035355;28;20045;-29
2023/06/08 10:42:18;;;;;;;7.97;3.00;;;24.20;1.00;;;;;;5017649;28;20053;-29
2023/06/08 10:44:52;;;;;;;6.47;2.27;;;24.10;1.00;;;;;;5034680;28;20512;-30
2023/06/08 10:47:17;;;;;;;7.47;2.65;;;24.10;1.00;;;;;;5035208;28;20095;-30
2023/06/08 10:49:56;;;;;;;6.05;2.50;;;24.10;1.00;;;;;;5035281;28;20049;-30
2023/06/08 10:52:23;;;;;;;8.70;3.03;;;24.30;1.00;;;;;;5035680;28;20131;-30
2023/06/08 10:55:08;;;;;;;6.63;3.10;;;24.00;1.00;;;;;;5034151;28;20493;-30
2023/06/08 10:57:37;;;;;;;9.45;3.47;;;23.50;1.00;;;;;;5035372;28;20123;-30
2023/06/08 11:00:30;;;;;;;8.25;3.88;;;23.50;1.00;;;;;;5034407;28;20041;-30
2023/06/08 11:03:00;;;;;;;9.82;2.83;;;23.70;1.00;;;;;;5028952;28;20464;-30
2023/06/08 11:05:37;;;;;;;10.15;3.38;;;23.60;1.00;;;;;;5033944;28;20045;-30
2023/06/08 11:08:07;;;;;;;8.63;3.00;;;23.60;1.00;;;;;;5033409;28;20045;-33
2023/06/08 11:10:33;;;;;;;6.82;2.40;;;23.40;1.00;;;;;;5033638;28;20049;-30
2023/06/08 11:13:20;;;;;;;11.30;3.22;;;23.30;1.00;;;;;;5035571;28;20094;-30
2023/06/08 11:15:47;;;;;;;9.15;2.97;;;23.00;1.00;;;;;;5035333;28;20056;-30
2023/06/08 11:18:13;;;;;;;8.30;2.60;;;22.80;1.00;;;;;;5034637;28;20057;-30
2023/06/08 11:20:41;;;;;;;8.90;2.67;;;23.10;1.00;;;;;;5033279;28;20135;-30
2023/06/08 11:23:08;;;;;;;7.88;2.58;;;23.40;1.00;;;;;;5034516;28;20076;-31
2023/06/08 11:25:35;;;;;;;7.32;2.67;;;23.50;1.00;;;;;;5034510;28;20107;-30
2023/06/08 11:28:01;;;;;;;10.10;3.28;;;23.40;1.00;;;;;;5034425;28;20048;-31
2023/06/08 11:30:31;;;;;;;7.50;3.42;;;23.60;1.00;;;;;;5033950;28;20500;-31
2023/06/08 11:32:57;;;;;;;10.50;3.58;;;23.80;1.00;;;;;;5034400;28;20404;-30
2023/06/08 11:35:24;;;;;;;11.25;3.50;;;24.00;1.00;;;;;;5033118;28;20041;-30
2023/06/08 11:37:55;;;;;;;7.35;2.78;;;24.00;1.00;;;;;;5034549;28;20436;-31
2023/06/08 11:40:21;;;;;;;9.65;3.10;;;24.40;1.00;;;;;;5032874;28;20048;-30
2023/06/08 11:42:47;;;;;;;7.57;2.90;;;24.20;1.00;;;;;;5033263;28;20140;-30
2023/06/08 11:45:14;;;;;;;10.32;2.30;;;24.20;1.00;;;;;;5034405;28;20132;-30
2023/06/08 11:47:41;;;;;;;9.63;2.75;;;24.40;1.00;;;;;;5034883;28;20384;-30
2023/06/08 11:50:08;;;;;;;7.55;2.55;;;24.50;1.00;;;;;;5034503;28;20049;-30
2023/06/08 11:52:35;;;;;;;7.82;2.78;;;24.20;1.00;;;;;;5034045;28;20064;-30
2023/06/08 11:55:12;;;;;;;5.15;2.53;;;24.00;1.00;;;;;;5034062;28;20085;-30
2023/06/08 11:57:40;;;;;;;9.85;2.83;;;23.80;1.00;;;;;;5034016;28;20041;-30
2023/06/08 12:00:20;;;;;;;7.55;2.28;;;23.60;1.00;;;;;;5032962;28;20053;-31
2023/06/08 12:02:50;;;;;;;6.78;2.65;;;23.80;1.00;;;;;;5034964;28;20046;-31
2023/06/08 12:05:18;;;;;;;7.30;2.20;;;23.60;1.00;;;;;;5016399;28;20433;-32
2023/06/08 12:07:58;;;;;;;8.73;1.98;;;23.40;99.90;;;;;;5033727;28;20056;-31
2023/06/08 12:10:34;;;;;;;8.95;2.85;;;23.20;99.90;;;;;;5033683;28;20085;-31
2023/06/08 12:13:08;;;;;;;5.57;2.25;;;23.10;99.90;;;;;;5033169;28;20484;-30
2023/06/08 12:15:44;;;;;;;6.18;1.58;;;22.80;1.00;;;;;;5032553;28;20547;-30
2023/06/08 12:18:11;;;;;;;8.38;2.03;;;23.20;1.00;;;;;;5033939;28;20064;-31
2023/06/08 12:20:38;;;;;;;4.82;2.00;;;23.40;1.00;;;;;;5033538;28;20512;-30
2023/06/08 12:23:04;;;;;;;4.47;1.40;;;23.50;1.00;;;;;;5033696;28;20041;-30
2023/06/08 12:25:30;;;;;;;7.78;3.33;;;23.90;1.00;;;;;;5033408;28;20110;-30
2023/06/08 12:27:57;;;;;;;7.65;2.20;;;23.90;1.00;;;;;;5033438;28;20131;-31
2023/06/08 12:30:24;;;;;;;8.35;2.38;;;23.70;1.00;;;;;;5033122;28;20053;-30
2023/06/08 12:32:51;;;;;;;7.82;1.98;;;23.70;1.00;;;;;;5033166;28;20416;-30
2023/06/08 12:35:17;;;;;;;6.55;2.03;;;23.80;1.00;;;;;;5033960;28;20413;-31
2023/06/08 12:37:48;;;;;;;9.45;2.47;;;23.70;1.00;;;;;;5033467;28;20172;-30
2023/06/08 12:40:16;;;;;;;8.23;1.98;;;23.80;1.00;;;;;;5033112;28;20405;-30
2023/06/08 12:42:46;;;;;;;8.82;2.90;;;23.60;1.00;;;;;;5032345;28;20045;-30
2023/06/08 12:45:13;;;;;;;7.18;2.22;;;23.80;1.00;;;;;;5033203;28;20139;-30
2023/06/08 12:47:39;;;;;;;6.72;2.08;;;23.70;1.00;;;;;;5033257;28;20049;-30
2023/06/08 12:50:06;;;;;;;5.97;1.63;;;23.90;1.00;;;;;;5032228;28;20064;-30